createdAt,value
2018-12-19T00:00:07.129Z,54.27
2018-12-19T00:00:39.699Z,49.48
2018-12-19T00:01:12.302Z,46.37
2018-12-19T00:01:44.909Z,45.83
2018-12-19T00:02:17.528Z,49.00
2018-12-19T00:02:50.092Z,59.05
2018-12-19T00:03:22.684Z,43.15
2018-12-19T00:03:55.318Z,46.18
2018-12-19T00:04:27.918Z,51.85
2018-12-19T00:05:00.481Z,50.55
2018-12-19T00:05:33.084Z,52.65
2018-12-19T00:06:05.692Z,57.80
2018-12-19T00:06:38.283Z,52.98
2018-12-19T00:07:10.863Z,53.10
2018-12-19T00:07:43.453Z,51.53
2018-12-19T00:08:16.049Z,50.00
2018-12-19T00:08:49.489Z,50.60
2018-12-19T00:09:22.076Z,50.23
2018-12-19T00:09:54.648Z,50.80
2018-12-19T00:10:27.224Z,50.83
2018-12-19T00:10:59.830Z,45.15
2018-12-19T00:11:32.437Z,50.88
2018-12-19T00:12:05.021Z,49.08
2018-12-19T00:12:37.591Z,54.60
2018-12-19T00:13:14.751Z,51.23
2018-12-19T00:13:47.325Z,54.50
2018-12-19T00:14:19.924Z,44.98
2018-12-19T00:14:52.526Z,47.05
2018-12-19T00:15:25.121Z,49.95
2018-12-19T00:15:57.721Z,46.85
2018-12-19T00:16:30.281Z,49.80
2018-12-19T00:17:02.845Z,53.75
2018-12-19T00:17:35.415Z,56.23
2018-12-19T00:18:07.997Z,52.00
2018-12-19T00:18:40.609Z,49.63
2018-12-19T00:19:13.205Z,48.05
2018-12-19T00:19:45.786Z,50.40
2018-12-19T00:20:18.383Z,51.02
2018-12-19T00:20:50.958Z,49.40
2018-12-19T00:21:23.508Z,51.77
2018-12-19T00:21:56.132Z,52.80
2018-12-19T00:22:28.799Z,51.77
2018-12-19T00:23:01.405Z,54.40
2018-12-19T00:23:33.976Z,53.85
2018-12-19T00:24:06.607Z,56.70
2018-12-19T00:24:39.175Z,50.15
2018-12-19T00:25:11.752Z,50.05
2018-12-19T00:25:44.360Z,57.48
2018-12-19T00:26:16.931Z,51.95
2018-12-19T00:26:49.527Z,49.73
2018-12-19T00:27:22.102Z,51.58
2018-12-19T00:27:54.801Z,55.92
2018-12-19T00:28:27.354Z,52.40
2018-12-19T00:28:59.950Z,58.78
2018-12-19T00:29:32.557Z,55.95
2018-12-19T00:30:05.363Z,50.28
2018-12-19T00:30:37.945Z,58.33
2018-12-19T00:31:10.521Z,57.53
2018-12-19T00:31:43.101Z,52.53
2018-12-19T00:32:15.695Z,49.33
2018-12-19T00:32:48.301Z,53.33
2018-12-19T00:33:20.876Z,60.48
2018-12-19T00:33:53.451Z,57.93
2018-12-19T00:34:28.689Z,58.70
2018-12-19T00:35:01.362Z,53.15
2018-12-19T00:35:33.954Z,54.13
2018-12-19T00:36:06.544Z,51.23
2018-12-19T00:36:39.123Z,53.35
2018-12-19T00:37:11.718Z,63.55
2018-12-19T00:37:44.302Z,54.33
2018-12-19T00:38:16.905Z,61.13
2018-12-19T00:38:49.477Z,54.45
2018-12-19T00:39:22.075Z,61.15
2018-12-19T00:39:54.670Z,55.15
2018-12-19T00:40:27.268Z,57.70
2018-12-19T00:40:59.852Z,60.12
2018-12-19T00:41:32.409Z,53.55
2018-12-19T00:42:05.007Z,59.03
2018-12-19T00:42:37.595Z,57.40
2018-12-19T00:43:10.498Z,57.45
2018-12-19T00:43:43.112Z,49.73
2018-12-19T00:44:15.714Z,55.75
2018-12-19T00:44:48.316Z,55.08
2018-12-19T00:45:21.038Z,50.05
2018-12-19T00:45:53.653Z,55.95
2018-12-19T00:46:26.267Z,62.78
2018-12-19T00:46:58.838Z,57.70
2018-12-19T00:47:31.425Z,64.75
2018-12-19T00:48:04.001Z,70.55
2018-12-19T00:48:36.643Z,62.23
2018-12-19T00:49:09.247Z,60.80
2018-12-19T00:49:41.835Z,64.20
2018-12-19T00:50:14.428Z,65.32
2018-12-19T00:50:47.009Z,61.30
2018-12-19T00:51:19.633Z,58.13
2018-12-19T00:51:52.345Z,61.15
2018-12-19T00:52:24.920Z,64.80
2018-12-19T00:52:57.509Z,62.55
2018-12-19T00:53:30.075Z,55.95
2018-12-19T00:54:02.683Z,59.33
2018-12-19T00:54:35.286Z,64.15
2018-12-19T00:55:07.990Z,63.05
2018-12-19T00:55:40.591Z,63.65
2018-12-19T00:56:13.178Z,61.13
2018-12-19T00:56:45.776Z,60.05
2018-12-19T00:57:18.355Z,57.95
2018-12-19T00:57:50.942Z,71.02
2018-12-19T00:58:23.554Z,73.50
2018-12-19T00:58:56.173Z,65.37
2018-12-19T00:59:28.732Z,64.72
2018-12-19T01:00:01.365Z,66.77
2018-12-19T01:00:33.990Z,69.30
2018-12-19T01:01:06.587Z,67.47
2018-12-19T01:01:39.196Z,57.83
2018-12-19T01:02:11.803Z,68.92
2018-12-19T01:02:44.444Z,63.25
2018-12-19T01:03:17.110Z,65.37
2018-12-19T01:03:49.739Z,66.42
2018-12-19T01:04:22.353Z,64.40
2018-12-19T01:04:54.969Z,63.70
2018-12-19T01:05:27.590Z,69.32
2018-12-19T01:06:00.182Z,60.12
2018-12-19T01:06:32.752Z,57.67
2018-12-19T01:07:05.333Z,66.55
2018-12-19T01:07:37.978Z,57.80
2018-12-19T01:08:10.556Z,61.33
2018-12-19T01:08:43.153Z,63.65
2018-12-19T01:09:16.037Z,64.25
2018-12-19T01:09:48.745Z,59.42
2018-12-19T01:10:21.463Z,64.55
2018-12-19T01:10:54.028Z,56.20
2018-12-19T01:11:26.621Z,56.88
2018-12-19T01:11:59.206Z,68.97
2018-12-19T01:12:31.800Z,60.40
2018-12-19T01:13:04.478Z,60.73
2018-12-19T01:13:37.497Z,58.23
2018-12-19T01:14:10.065Z,53.20
2018-12-19T01:14:42.689Z,60.92
2018-12-19T01:15:15.271Z,51.02
2018-12-19T01:15:47.841Z,54.98
2018-12-19T01:16:20.406Z,57.27
2018-12-19T01:16:53.002Z,56.13
2018-12-19T01:17:25.566Z,51.25
2018-12-19T01:17:58.150Z,60.45
2018-12-19T01:18:30.766Z,52.53
2018-12-19T01:19:03.368Z,54.23
2018-12-19T01:19:35.951Z,57.17
2018-12-19T01:20:08.569Z,62.65
2018-12-19T01:20:41.170Z,59.73
2018-12-19T01:21:13.753Z,58.92
2018-12-19T01:21:46.345Z,55.78
2018-12-19T01:22:18.913Z,56.10
2018-12-19T01:22:51.514Z,55.70
2018-12-19T01:23:24.113Z,60.60
2018-12-19T01:23:56.734Z,54.65
2018-12-19T01:24:29.334Z,56.90
2018-12-19T01:25:01.963Z,52.13
2018-12-19T01:25:34.556Z,55.45
2018-12-19T01:26:07.163Z,57.75
2018-12-19T01:26:39.762Z,60.38
2018-12-19T01:27:12.347Z,56.42
2018-12-19T01:27:44.937Z,58.40
2018-12-19T01:28:17.510Z,55.25
2018-12-19T01:28:50.072Z,57.20
2018-12-19T01:29:22.689Z,50.23
2018-12-19T01:29:55.266Z,51.90
2018-12-19T01:30:27.909Z,48.83
2018-12-19T01:31:00.498Z,52.17
2018-12-19T01:31:33.107Z,52.55
2018-12-19T01:32:05.723Z,47.08
2018-12-19T01:32:38.313Z,49.65
2018-12-19T01:33:10.887Z,49.65
2018-12-19T01:33:43.465Z,55.80
2018-12-19T01:34:16.066Z,48.70
2018-12-19T01:34:48.671Z,55.03
2018-12-19T01:35:21.266Z,52.93
2018-12-19T01:35:53.857Z,55.88
2018-12-19T01:36:26.436Z,45.73
2018-12-19T01:36:59.023Z,54.23
2018-12-19T01:37:31.623Z,49.83
2018-12-19T01:38:04.245Z,51.42
2018-12-19T01:38:36.834Z,52.75
2018-12-19T01:39:09.427Z,53.73
2018-12-19T01:39:41.999Z,52.20
2018-12-19T01:40:14.618Z,52.90
2018-12-19T01:40:47.213Z,54.38
2018-12-19T01:41:19.771Z,55.63
2018-12-19T01:41:52.403Z,55.70
2018-12-19T01:42:25.058Z,54.08
2018-12-19T01:42:57.677Z,52.67
2018-12-19T01:43:30.280Z,57.80
2018-12-19T01:44:03.072Z,46.25
2018-12-19T01:44:35.652Z,49.73
2018-12-19T01:45:08.294Z,50.95
2018-12-19T01:45:40.907Z,50.65
2018-12-19T01:46:13.494Z,47.38
2018-12-19T01:46:46.093Z,48.52
2018-12-19T01:47:18.687Z,61.42
2018-12-19T01:47:51.322Z,54.25
2018-12-19T01:48:23.893Z,55.60
2018-12-19T01:48:56.465Z,54.50
2018-12-19T01:49:29.047Z,56.70
2018-12-19T01:50:01.633Z,62.98
2018-12-19T01:50:34.226Z,55.17
2018-12-19T01:51:06.824Z,56.00
2018-12-19T01:51:39.528Z,55.28
2018-12-19T01:52:12.100Z,49.40
2018-12-19T01:52:44.674Z,47.00
2018-12-19T01:53:17.253Z,51.80
2018-12-19T01:53:49.856Z,52.98
2018-12-19T01:54:22.442Z,59.23
2018-12-19T01:54:55.038Z,52.45
2018-12-19T01:55:27.631Z,52.17
2018-12-19T01:56:00.334Z,47.10
2018-12-19T01:56:32.933Z,52.00
2018-12-19T01:57:05.547Z,52.67
2018-12-19T01:57:38.181Z,51.42
2018-12-19T01:58:10.770Z,60.12
2018-12-19T01:58:43.372Z,53.68
2018-12-19T01:59:15.988Z,56.95
2018-12-19T01:59:48.566Z,48.13
2018-12-19T02:00:25.822Z,50.98
2018-12-19T02:00:58.414Z,55.10
2018-12-19T02:01:31.020Z,47.13
2018-12-19T02:02:03.737Z,52.85
2018-12-19T02:02:36.316Z,46.95
2018-12-19T02:03:08.909Z,56.65
2018-12-19T02:03:41.486Z,50.12
2018-12-19T02:04:14.078Z,45.17
2018-12-19T02:04:46.677Z,55.38
2018-12-19T02:05:19.263Z,46.95
2018-12-19T02:05:51.848Z,50.85
2018-12-19T02:06:24.427Z,53.33
2018-12-19T02:06:57.019Z,49.70
2018-12-19T02:07:29.623Z,51.65
2018-12-19T02:08:02.196Z,58.30
2018-12-19T02:08:34.769Z,53.63
2018-12-19T02:09:07.942Z,46.35
2018-12-19T02:09:40.524Z,54.83
2018-12-19T02:10:13.081Z,61.00
2018-12-19T02:10:45.645Z,47.00
2018-12-19T02:11:18.230Z,50.58
2018-12-19T02:11:51.063Z,42.10
2018-12-19T02:12:23.667Z,47.73
2018-12-19T02:12:56.279Z,46.85
2018-12-19T02:13:28.864Z,49.35
2018-12-19T02:14:01.450Z,50.92
2018-12-19T02:14:34.024Z,49.60
2018-12-19T02:15:06.735Z,51.77
2018-12-19T02:15:39.325Z,49.50
2018-12-19T02:16:11.913Z,49.77
2018-12-19T02:16:44.526Z,57.73
2018-12-19T02:17:17.108Z,51.50
2018-12-19T02:17:49.682Z,53.33
2018-12-19T02:18:22.286Z,52.93
2018-12-19T02:18:54.891Z,51.88
2018-12-19T02:19:27.484Z,46.33
2018-12-19T02:20:00.085Z,54.30
2018-12-19T02:20:32.678Z,43.98
2018-12-19T02:21:05.282Z,52.48
2018-12-19T02:21:37.855Z,54.77
2018-12-19T02:22:10.465Z,45.48
2018-12-19T02:22:43.322Z,50.05
2018-12-19T02:23:15.932Z,49.10
2018-12-19T02:23:48.567Z,48.63
2018-12-19T02:24:21.180Z,44.80
2018-12-19T02:24:53.766Z,44.98
2018-12-19T02:25:26.343Z,51.48
2018-12-19T02:25:58.922Z,54.50
2018-12-19T02:26:31.516Z,50.88
2018-12-19T02:27:04.100Z,46.10
2018-12-19T02:27:36.703Z,52.27
2018-12-19T02:28:09.306Z,46.08
2018-12-19T02:28:41.911Z,51.15
2018-12-19T02:29:14.526Z,47.80
2018-12-19T02:29:47.110Z,46.88
2018-12-19T02:30:19.697Z,50.60
2018-12-19T02:30:52.252Z,48.83
2018-12-19T02:31:24.852Z,46.30
2018-12-19T02:31:57.427Z,48.25
2018-12-19T02:32:29.999Z,44.33
2018-12-19T02:33:02.642Z,49.40
2018-12-19T02:33:35.222Z,48.42
2018-12-19T02:34:07.930Z,55.88
2018-12-19T02:34:40.564Z,53.48
2018-12-19T02:35:13.182Z,53.83
2018-12-19T02:35:45.760Z,48.70
2018-12-19T02:36:18.571Z,55.10
2018-12-19T02:36:51.166Z,53.08
2018-12-19T02:37:23.746Z,49.18
2018-12-19T02:37:56.337Z,52.15
2018-12-19T02:38:28.915Z,49.55
2018-12-19T02:39:01.493Z,53.63
2018-12-19T02:39:36.362Z,49.40
2018-12-19T02:40:08.755Z,46.83
2018-12-19T02:40:41.331Z,49.93
2018-12-19T02:41:13.911Z,49.80
2018-12-19T02:41:46.557Z,49.63
2018-12-19T02:42:19.150Z,56.20
2018-12-19T02:42:51.746Z,52.88
2018-12-19T02:43:24.352Z,52.65
2018-12-19T02:43:56.957Z,55.10
2018-12-19T02:44:29.563Z,48.23
2018-12-19T02:45:02.181Z,49.35
2018-12-19T02:45:34.815Z,45.65
2018-12-19T02:46:07.390Z,55.08
2018-12-19T02:46:39.970Z,51.13
2018-12-19T02:47:12.573Z,51.18
2018-12-19T02:47:45.163Z,52.83
2018-12-19T02:48:17.769Z,50.52
2018-12-19T02:48:50.356Z,58.25
2018-12-19T02:49:22.944Z,50.10
2018-12-19T02:49:55.517Z,53.65
2018-12-19T02:50:28.106Z,48.42
2018-12-19T02:51:00.714Z,52.95
2018-12-19T02:51:33.328Z,48.92
2018-12-19T02:52:05.889Z,58.63
2018-12-19T02:52:38.468Z,54.08
2018-12-19T02:53:11.036Z,49.77
2018-12-19T02:53:43.596Z,50.65
2018-12-19T02:54:16.174Z,53.13
2018-12-19T02:54:48.753Z,51.85
2018-12-19T02:55:21.334Z,52.08
2018-12-19T02:55:53.947Z,53.92
2018-12-19T02:56:26.563Z,55.95
2018-12-19T02:56:59.156Z,60.48
2018-12-19T02:57:31.754Z,48.75
2018-12-19T02:58:04.337Z,54.48
2018-12-19T02:58:36.942Z,50.10
2018-12-19T02:59:09.521Z,51.28
2018-12-19T02:59:42.104Z,44.10
2018-12-19T03:00:14.700Z,53.17
2018-12-19T03:00:47.312Z,51.10
2018-12-19T03:01:19.906Z,53.65
2018-12-19T03:01:52.548Z,59.23
2018-12-19T03:02:25.134Z,55.40
2018-12-19T03:02:57.702Z,55.73
2018-12-19T03:03:30.300Z,53.55
2018-12-19T03:04:03.003Z,47.78
2018-12-19T03:04:35.593Z,53.65
2018-12-19T03:05:08.219Z,50.05
2018-12-19T03:05:40.813Z,55.60
2018-12-19T03:06:13.398Z,53.75
2018-12-19T03:06:45.989Z,60.50
2018-12-19T03:07:18.591Z,52.58
2018-12-19T03:07:51.194Z,48.30
2018-12-19T03:08:23.788Z,56.08
2018-12-19T03:08:56.392Z,49.33
2018-12-19T03:09:28.961Z,59.50
2018-12-19T03:10:01.585Z,56.98
2018-12-19T03:10:34.174Z,56.10
2018-12-19T03:11:06.801Z,60.83
2018-12-19T03:11:39.384Z,55.28
2018-12-19T03:12:11.997Z,57.70
2018-12-19T03:12:44.606Z,52.03
2018-12-19T03:13:17.211Z,61.75
2018-12-19T03:13:52.707Z,56.70
2018-12-19T03:14:25.287Z,54.30
2018-12-19T03:14:57.887Z,61.10
2018-12-19T03:15:30.484Z,56.83
2018-12-19T03:16:03.068Z,56.23
2018-12-19T03:16:35.766Z,57.25
2018-12-19T03:17:08.363Z,66.42
2018-12-19T03:17:40.970Z,60.05
2018-12-19T03:18:13.596Z,64.27
2018-12-19T03:18:46.189Z,53.28
2018-12-19T03:19:18.794Z,65.85
2018-12-19T03:19:51.394Z,56.68
2018-12-19T03:20:24.016Z,61.63
2018-12-19T03:20:56.605Z,65.97
2018-12-19T03:21:29.332Z,60.48
2018-12-19T03:22:01.933Z,63.15
2018-12-19T03:22:34.577Z,59.23
2018-12-19T03:23:07.190Z,62.98
2018-12-19T03:23:39.801Z,72.10
2018-12-19T03:24:12.381Z,64.85
2018-12-19T03:24:44.969Z,68.10
2018-12-19T03:25:17.559Z,72.50
2018-12-19T03:25:50.144Z,61.45
2018-12-19T03:26:22.725Z,63.68
2018-12-19T03:26:55.372Z,73.15
2018-12-19T03:27:27.973Z,64.03
2018-12-19T03:28:00.570Z,75.78
2018-12-19T03:28:33.159Z,71.42
2018-12-19T03:29:05.755Z,58.58
2018-12-19T03:29:38.345Z,73.97
2018-12-19T03:30:10.937Z,78.37
2018-12-19T03:30:43.566Z,81.75
2018-12-19T03:31:16.282Z,78.95
2018-12-19T03:31:50.851Z,67.72
2018-12-19T03:32:23.538Z,72.20
2018-12-19T03:32:56.121Z,64.32
2018-12-19T03:33:28.750Z,81.65
2018-12-19T03:34:01.368Z,86.42
2018-12-19T03:34:33.998Z,78.07
2018-12-19T03:35:06.628Z,73.92
2018-12-19T03:35:39.269Z,101.15
2018-12-19T03:36:11.915Z,104.43
2018-12-19T03:36:44.545Z,102.82
2018-12-19T03:37:17.167Z,100.30
2018-12-19T03:37:49.817Z,74.72
2018-12-19T03:38:23.279Z,99.75
2018-12-19T03:38:55.877Z,80.28
2018-12-19T03:39:28.509Z,106.67
2018-12-19T03:40:01.170Z,85.57
2018-12-19T03:40:33.819Z,64.05
2018-12-19T03:41:06.588Z,76.72
2018-12-19T03:41:39.203Z,85.62
2018-12-19T03:42:11.958Z,90.22
2018-12-19T03:42:44.597Z,84.50
2018-12-19T03:43:17.263Z,102.78
2018-12-19T03:43:49.884Z,62.20
2018-12-19T03:44:22.502Z,71.90
2018-12-19T03:44:55.130Z,66.40
2018-12-19T03:45:27.785Z,171.55
2018-12-19T03:46:00.389Z,82.37
2018-12-19T03:46:33.007Z,61.92
2018-12-19T03:47:05.618Z,80.35
2018-12-19T03:47:38.263Z,108.75
2018-12-19T03:48:15.490Z,91.95
2018-12-19T03:48:53.681Z,112.12
2018-12-19T03:49:26.448Z,77.08
2018-12-19T03:49:59.101Z,68.75
2018-12-19T03:50:31.759Z,62.88
2018-12-19T03:51:04.416Z,89.07
2018-12-19T03:51:37.030Z,77.37
2018-12-19T03:52:09.645Z,58.68
2018-12-19T03:52:42.269Z,77.72
2018-12-19T03:53:14.897Z,67.35
2018-12-19T03:53:47.536Z,119.22
2018-12-19T03:54:20.174Z,116.17
2018-12-19T03:54:52.813Z,84.97
2018-12-19T03:55:25.444Z,63.90
2018-12-19T03:55:58.110Z,64.20
2018-12-19T03:56:30.766Z,119.35
2018-12-19T03:57:04.872Z,73.52
2018-12-19T03:57:37.522Z,57.35
2018-12-19T03:58:10.172Z,62.30
2018-12-19T03:58:42.810Z,84.52
2018-12-19T03:59:15.412Z,87.12
2018-12-19T04:00:48.648Z,65.93
2018-12-19T04:01:21.285Z,63.08
2018-12-19T04:01:53.891Z,61.60
2018-12-19T04:02:26.487Z,91.25
2018-12-19T04:02:59.097Z,65.65
2018-12-19T04:03:31.703Z,64.87
2018-12-19T04:04:04.323Z,64.20
2018-12-19T04:04:36.935Z,65.17
2018-12-19T04:05:09.558Z,74.37
2018-12-19T04:05:42.173Z,83.58
2018-12-19T04:06:15.112Z,69.58
2018-12-19T04:06:47.776Z,69.00
2018-12-19T04:07:20.416Z,134.22
2018-12-19T04:07:53.031Z,106.22
2018-12-19T04:08:25.643Z,99.00
2018-12-19T04:08:58.270Z,84.80
2018-12-19T04:09:30.890Z,86.85
2018-12-19T04:10:04.733Z,105.70
2018-12-19T04:10:37.352Z,94.45
2018-12-19T04:11:10.007Z,69.67
2018-12-19T04:11:42.620Z,121.25
2018-12-19T04:12:15.270Z,83.95
2018-12-19T04:12:47.931Z,86.30
2018-12-19T04:13:20.518Z,106.35
2018-12-19T04:13:53.171Z,60.23
2018-12-19T04:14:25.863Z,76.45
2018-12-19T04:14:58.505Z,79.70
2018-12-19T04:15:31.258Z,88.45
2018-12-19T04:16:03.985Z,76.02
2018-12-19T04:16:36.731Z,87.75
2018-12-19T04:17:09.375Z,85.25
2018-12-19T04:17:42.023Z,90.40
2018-12-19T04:18:14.672Z,83.37
2018-12-19T04:18:47.298Z,87.02
2018-12-19T04:19:19.926Z,83.17
2018-12-19T04:19:52.565Z,75.52
2018-12-19T04:20:25.167Z,102.20
2018-12-19T04:20:57.819Z,74.80
2018-12-19T04:21:30.465Z,70.90
2018-12-19T04:22:03.073Z,87.37
2018-12-19T04:22:35.690Z,78.05
2018-12-19T04:23:08.340Z,85.95
2018-12-19T04:23:40.950Z,74.05
2018-12-19T04:24:13.582Z,89.35
2018-12-19T04:24:46.205Z,83.07
2018-12-19T04:25:18.837Z,79.95
2018-12-19T04:25:51.463Z,80.47
2018-12-19T04:26:24.106Z,92.75
2018-12-19T04:26:56.752Z,88.65
2018-12-19T04:27:29.373Z,83.80
2018-12-19T04:28:02.290Z,80.12
2018-12-19T04:28:34.910Z,91.45
2018-12-19T04:29:07.520Z,95.17
2018-12-19T04:29:40.268Z,88.47
2018-12-19T04:30:12.896Z,93.78
2018-12-19T04:30:45.504Z,85.92
2018-12-19T04:31:18.130Z,107.00
2018-12-19T04:31:50.752Z,80.12
2018-12-19T04:32:23.539Z,103.15
2018-12-19T04:32:56.294Z,84.90
2018-12-19T04:33:28.935Z,89.70
2018-12-19T04:34:01.587Z,87.95
2018-12-19T04:34:34.209Z,83.50
2018-12-19T04:35:06.841Z,94.22
2018-12-19T04:35:39.602Z,98.33
2018-12-19T04:36:12.221Z,96.70
2018-12-19T04:36:44.864Z,94.45
2018-12-19T04:37:17.578Z,99.05
2018-12-19T04:37:50.203Z,82.80
2018-12-19T04:38:22.846Z,110.60
2018-12-19T04:38:55.491Z,82.85
2018-12-19T04:39:28.169Z,85.77
2018-12-19T04:40:05.365Z,100.87
2018-12-19T04:40:35.394Z,85.20
2018-12-19T04:41:07.985Z,122.67
2018-12-19T04:41:40.644Z,97.00
2018-12-19T04:42:13.285Z,84.52
2018-12-19T04:42:47.725Z,104.78
2018-12-19T04:43:20.918Z,81.80
2018-12-19T04:43:53.532Z,75.72
2018-12-19T04:44:26.164Z,87.60
2018-12-19T04:44:58.796Z,96.12
2018-12-19T04:45:31.436Z,92.62
2018-12-19T04:46:04.058Z,89.03
2018-12-19T04:46:36.708Z,111.52
2018-12-19T04:47:09.354Z,92.53
2018-12-19T04:47:41.952Z,99.42
2018-12-19T04:48:14.676Z,91.53
2018-12-19T04:48:47.262Z,93.90
2018-12-19T04:49:19.884Z,83.17
2018-12-19T04:49:52.521Z,85.80
2018-12-19T04:50:25.171Z,98.03
2018-12-19T04:50:57.786Z,84.50
2018-12-19T04:51:30.368Z,86.90
2018-12-19T04:52:02.966Z,93.50
2018-12-19T04:52:35.618Z,83.67
2018-12-19T04:53:08.281Z,93.87
2018-12-19T04:53:40.876Z,93.92
2018-12-19T04:54:13.484Z,99.50
2018-12-19T04:54:46.113Z,93.05
2018-12-19T04:55:18.809Z,92.97
2018-12-19T04:55:51.457Z,103.53
2018-12-19T04:56:24.083Z,89.75
2018-12-19T04:56:56.702Z,83.55
2018-12-19T04:57:29.319Z,82.65
2018-12-19T04:58:01.940Z,88.70
2018-12-19T04:58:34.596Z,110.30
2018-12-19T04:59:07.230Z,88.10
2018-12-19T04:59:40.347Z,96.12
2018-12-19T05:00:13.147Z,97.00
2018-12-19T05:00:45.807Z,89.85
2018-12-19T05:01:18.484Z,90.83
2018-12-19T05:01:51.093Z,88.82
2018-12-19T05:02:23.742Z,99.13
2018-12-19T05:02:56.390Z,90.97
2018-12-19T05:03:29.058Z,82.45
2018-12-19T05:04:01.673Z,88.80
2018-12-19T05:04:34.263Z,99.28
2018-12-19T05:05:06.925Z,81.20
2018-12-19T05:05:39.569Z,81.05
2018-12-19T05:06:12.187Z,90.87
2018-12-19T05:06:45.010Z,93.00
2018-12-19T05:07:18.889Z,87.95
2018-12-19T05:07:51.618Z,99.80
2018-12-19T05:08:24.222Z,87.90
2018-12-19T05:08:56.823Z,85.35
2018-12-19T05:09:30.052Z,98.72
2018-12-19T05:10:02.797Z,99.30
2018-12-19T05:10:35.515Z,92.92
2018-12-19T05:11:08.106Z,89.30
2018-12-19T05:11:40.706Z,101.02
2018-12-19T05:12:13.323Z,87.97
2018-12-19T05:12:45.921Z,92.90
2018-12-19T05:13:18.522Z,98.82
2018-12-19T05:13:51.142Z,90.32
2018-12-19T05:14:23.949Z,91.08
2018-12-19T05:14:56.549Z,92.75
2018-12-19T05:15:29.153Z,99.75
2018-12-19T05:16:01.753Z,99.15
2018-12-19T05:16:34.357Z,119.85
2018-12-19T05:17:07.034Z,93.60
2018-12-19T05:17:39.700Z,99.65
2018-12-19T05:18:12.300Z,82.22
2018-12-19T05:18:44.881Z,85.15
2018-12-19T05:19:17.459Z,93.90
2018-12-19T05:19:50.177Z,99.37
2018-12-19T05:20:22.771Z,98.67
2018-12-19T05:20:55.383Z,90.28
2018-12-19T05:21:28.010Z,103.38
2018-12-19T05:22:00.592Z,89.25
2018-12-19T05:22:33.177Z,85.95
2018-12-19T05:23:05.784Z,99.85
2018-12-19T05:23:38.387Z,94.52
2018-12-19T05:24:10.988Z,81.90
2018-12-19T05:24:43.642Z,84.55
2018-12-19T05:25:16.212Z,84.47
2018-12-19T05:25:48.811Z,78.90
2018-12-19T05:26:21.416Z,93.85
2018-12-19T05:26:54.016Z,81.82
2018-12-19T05:27:26.646Z,90.65
2018-12-19T05:27:59.254Z,98.15
2018-12-19T05:28:31.893Z,91.42
2018-12-19T05:29:04.461Z,96.28
2018-12-19T05:29:37.057Z,93.67
2018-12-19T05:30:09.827Z,87.78
2018-12-19T05:30:42.436Z,79.25
2018-12-19T05:31:15.087Z,78.70
2018-12-19T05:31:47.686Z,88.07
2018-12-19T05:32:20.284Z,98.20
2018-12-19T05:32:52.892Z,94.42
2018-12-19T05:33:25.483Z,104.17
2018-12-19T05:33:58.088Z,101.15
2018-12-19T05:34:30.717Z,96.78
2018-12-19T05:35:04.027Z,106.05
2018-12-19T05:35:36.636Z,103.72
2018-12-19T05:36:09.229Z,102.72
2018-12-19T05:36:41.946Z,103.07
2018-12-19T05:37:14.585Z,87.82
2018-12-19T05:37:47.193Z,93.12
2018-12-19T05:38:19.831Z,86.95
2018-12-19T05:38:53.137Z,102.85
2018-12-19T05:39:25.788Z,85.05
2018-12-19T05:39:58.374Z,90.03
2018-12-19T05:40:31.336Z,79.17
2018-12-19T05:41:03.950Z,90.03
2018-12-19T05:41:36.636Z,91.55
2018-12-19T05:42:09.334Z,84.55
2018-12-19T05:42:41.913Z,88.82
2018-12-19T05:43:14.526Z,94.22
2018-12-19T05:43:47.116Z,84.67
2018-12-19T05:44:19.681Z,76.37
2018-12-19T05:44:52.334Z,83.33
2018-12-19T05:45:24.927Z,84.95
2018-12-19T05:45:57.530Z,87.47
2018-12-19T05:46:30.118Z,77.60
2018-12-19T05:47:02.712Z,94.60
2018-12-19T05:47:35.466Z,94.50
2018-12-19T05:48:08.058Z,92.37
2018-12-19T05:48:40.664Z,83.37
2018-12-19T05:49:13.342Z,89.92
2018-12-19T05:49:46.101Z,90.65
2018-12-19T05:50:21.144Z,81.45
2018-12-19T05:50:53.834Z,86.97
2018-12-19T05:51:26.425Z,88.47
2018-12-19T05:51:59.022Z,85.25
2018-12-19T05:52:31.802Z,82.33
2018-12-19T05:53:04.411Z,93.03
2018-12-19T05:53:36.998Z,93.20
2018-12-19T05:54:09.648Z,88.35
2018-12-19T05:54:42.295Z,85.25
2018-12-19T05:55:14.885Z,82.20
2018-12-19T05:55:47.529Z,97.95
2018-12-19T05:56:20.134Z,88.45
2018-12-19T05:56:52.734Z,89.15
2018-12-19T05:57:25.445Z,81.60
2018-12-19T05:57:58.080Z,88.92
2018-12-19T05:58:30.685Z,88.35
2018-12-19T05:59:03.362Z,79.87
2018-12-19T05:59:36.020Z,81.97
2018-12-19T06:00:08.645Z,81.32
2018-12-19T06:00:41.242Z,80.47
2018-12-19T06:01:13.971Z,79.50
2018-12-19T06:01:46.627Z,89.37
2018-12-19T06:02:20.148Z,79.10
2018-12-19T06:02:52.751Z,84.42
2018-12-19T06:03:25.374Z,74.77
2018-12-19T06:03:58.008Z,73.67
2018-12-19T06:04:30.707Z,77.97
2018-12-19T06:05:04.189Z,78.22
2018-12-19T06:05:36.805Z,78.30
2018-12-19T06:06:10.583Z,76.77
2018-12-19T06:06:43.207Z,75.87
2018-12-19T06:07:15.819Z,73.02
2018-12-19T06:07:48.423Z,76.07
2018-12-19T06:08:21.011Z,75.65
2018-12-19T06:08:53.596Z,77.27
2018-12-19T06:09:26.216Z,70.85
2018-12-19T06:09:58.920Z,78.12
2018-12-19T06:10:31.512Z,75.30
2018-12-19T06:11:04.207Z,81.42
2018-12-19T06:11:36.822Z,76.87
2018-12-19T06:12:09.508Z,76.85
2018-12-19T06:12:42.126Z,79.70
2018-12-19T06:13:14.720Z,71.90
2018-12-19T06:13:47.340Z,86.22
2018-12-19T06:14:19.961Z,80.15
2018-12-19T06:14:52.566Z,75.67
2018-12-19T06:15:25.178Z,82.02
2018-12-19T06:15:57.903Z,77.60
2018-12-19T06:16:30.562Z,78.52
2018-12-19T06:17:03.159Z,86.80
2018-12-19T06:17:35.831Z,89.83
2018-12-19T06:18:08.533Z,76.17
2018-12-19T06:18:41.140Z,79.22
2018-12-19T06:19:13.737Z,77.10
2018-12-19T06:19:46.332Z,71.33
2018-12-19T06:20:18.941Z,68.95
2018-12-19T06:20:51.566Z,77.03
2018-12-19T06:21:24.228Z,73.83
2018-12-19T06:21:56.880Z,67.82
2018-12-19T06:22:29.509Z,77.22
2018-12-19T06:23:02.138Z,74.30
2018-12-19T06:23:34.739Z,75.10
2018-12-19T06:24:07.359Z,67.78
2018-12-19T06:24:39.986Z,73.17
2018-12-19T06:25:12.600Z,76.72
2018-12-19T06:25:45.222Z,78.00
2018-12-19T06:26:17.808Z,73.10
2018-12-19T06:26:50.431Z,78.17
2018-12-19T06:27:23.042Z,75.87
2018-12-19T06:27:55.826Z,83.30
2018-12-19T06:28:28.446Z,92.95
2018-12-19T06:29:01.114Z,110.20
2018-12-19T06:29:33.726Z,93.12
2018-12-19T06:30:06.472Z,100.97
2018-12-19T06:30:39.067Z,101.97
2018-12-19T06:31:11.669Z,100.95
2018-12-19T06:31:44.274Z,94.47
2018-12-19T06:32:16.885Z,90.75
2018-12-19T06:32:49.621Z,79.03
2018-12-19T06:33:22.227Z,87.72
2018-12-19T06:33:55.006Z,83.78
2018-12-19T06:34:27.624Z,74.80
2018-12-19T06:35:00.210Z,83.62
2018-12-19T06:35:32.808Z,79.95
2018-12-19T06:36:05.559Z,73.78
2018-12-19T06:36:38.174Z,77.87
2018-12-19T06:37:10.767Z,74.42
2018-12-19T06:37:43.365Z,74.40
2018-12-19T06:38:15.980Z,74.12
2018-12-19T06:38:48.594Z,78.47
2018-12-19T06:39:21.355Z,83.07
2018-12-19T06:39:53.967Z,79.05
2018-12-19T06:40:32.496Z,79.05
2018-12-19T06:41:02.177Z,66.95
2018-12-19T06:41:35.298Z,75.10
2018-12-19T06:42:07.915Z,72.17
2018-12-19T06:42:40.663Z,72.90
2018-12-19T06:43:13.262Z,74.25
2018-12-19T06:43:45.893Z,80.60
2018-12-19T06:44:18.514Z,80.22
2018-12-19T06:44:51.168Z,74.70
2018-12-19T06:45:23.811Z,82.42
2018-12-19T06:45:56.402Z,73.67
2018-12-19T06:46:29.008Z,80.50
2018-12-19T06:47:01.581Z,80.70
2018-12-19T06:47:34.195Z,77.62
2018-12-19T06:48:06.808Z,82.97
2018-12-19T06:48:39.405Z,64.40
2018-12-19T06:49:11.983Z,75.37
2018-12-19T06:49:44.598Z,72.53
2018-12-19T06:50:17.256Z,73.15
2018-12-19T06:50:49.951Z,89.42
2018-12-19T06:51:22.565Z,74.62
2018-12-19T06:51:55.158Z,79.60
2018-12-19T06:52:27.748Z,77.90
2018-12-19T06:53:00.359Z,78.62
2018-12-19T06:53:32.966Z,66.50
2018-12-19T06:54:05.566Z,90.53
2018-12-19T06:54:38.157Z,72.37
2018-12-19T06:55:10.786Z,71.57
2018-12-19T06:55:43.439Z,76.15
2018-12-19T06:56:16.070Z,79.97
2018-12-19T06:56:48.681Z,66.50
2018-12-19T06:57:21.278Z,74.70
2018-12-19T06:57:53.889Z,82.60
2018-12-19T06:58:26.484Z,70.87
2018-12-19T06:58:59.078Z,73.15
2018-12-19T06:59:31.673Z,75.32
2018-12-19T07:00:06.402Z,79.30
2018-12-19T07:00:39.014Z,79.67
2018-12-19T07:01:11.668Z,85.90